Wilmington, North Carolina
Current Conditions -  °F | °C
As of 8:53 AM on Saturday 20 Dec 2014 (Local Time) from KILM Reporting Station
Light Rain Light Rain  
Wind Chill: 38°   Ceiling: 7500
Heat Index: 43°   Visibility: 9mi
Dew Point: 40°   Wind: 8mph
Humidity: 89%   Direction: 40°NE
Pressure: 30.24"   Gusts: NA
Location:  34.24°N, 77.94°W
Report Text: KILM 201353Z 04007KT 9SM -RA OVC075 06/04 A3024 RMK AO2 SLP240 P0002 T00610044
Loading
Personal Weather Stations






























Interactive Weather Map New forecast layout! Learn more

10-Day Weather Forecast

Advertisements
Track Severe Weather on mobile